Time;durP1;ratioP1;P1;durP2;ratioP2;P2;SDS_P1;SDS_P2;PMS_P1;PMS_P2;Temp;Humidity;BMP_temperature;BMP_pressure;BME280_temperature;BME280_humidity;BME280_pressure;Samples;Min_cycle;Max_cycle;Signal;HPM_P1;HPM_P2
2023/03/19 00:02:16;;;;;;;37.13;16.70;;;;;;;2.62;57.37;99605.34;4967129;28;20078;-64
2023/03/19 00:04:47;;;;;;;39.58;15.32;;;;;;;2.70;57.34;99608.84;4966942;28;20128;-64
2023/03/19 00:07:19;;;;;;;32.00;15.30;;;;;;;2.53;57.81;99601.88;4970265;27;20051;-64
2023/03/19 00:09:50;;;;;;;30.25;13.88;;;;;;;2.83;57.28;99595.16;4967077;27;20047;-64
2023/03/19 00:12:20;;;;;;;38.30;15.75;;;;;;;3.11;57.22;99579.75;4951935;27;20124;-64
2023/03/19 00:14:51;;;;;;;39.78;13.63;;;;;;;3.36;56.40;99575.50;4959825;27;20052;-64
2023/03/19 00:17:21;;;;;;;30.70;13.80;;;;;;;3.56;56.21;99572.94;4957949;27;20140;-63
2023/03/19 00:19:52;;;;;;;22.45;11.30;;;;;;;3.52;55.62;99578.97;4955475;27;20119;-63
2023/03/19 00:22:24;;;;;;;24.55;10.65;;;;;;;3.42;55.63;99565.16;4953383;27;20570;-64
2023/03/19 00:24:55;;;;;;;20.50;8.90;;;;;;;3.51;56.06;99569.50;4951162;28;20063;-63
2023/03/19 00:27:25;;;;;;;17.65;5.90;;;;;;;3.55;55.29;99566.94;4951257;28;20483;-63
2023/03/19 00:29:56;;;;;;;14.73;6.18;;;;;;;3.43;55.12;99510.94;4951059;28;20072;-64
2023/03/19 00:32:32;;;;;;;13.98;5.78;;;;;;;4.09;54.72;99556.56;4957747;27;20076;-62
2023/03/19 00:35:02;;;;;;;12.88;5.38;;;;;;;4.26;54.28;99536.69;4958227;27;20548;-63
2023/03/19 00:37:35;;;;;;;15.48;4.82;;;;;;;4.57;52.88;99546.09;4953507;27;20047;-63
2023/03/19 00:40:06;;;;;;;11.52;5.03;;;;;;;4.58;52.75;99494.34;4964820;27;20043;-63
2023/03/19 00:42:37;;;;;;;9.43;4.45;;;;;;;4.93;51.75;99542.50;4953414;27;20081;-63
2023/03/19 00:45:08;;;;;;;15.05;4.60;;;;;;;4.94;51.49;99526.97;4948233;27;20046;-64
2023/03/19 00:47:42;;;;;;;11.93;3.92;;;;;;;4.74;51.62;99528.78;4966370;27;20058;-64
2023/03/19 00:50:13;;;;;;;12.70;4.30;;;;;;;4.50;51.54;99519.41;4956345;27;20047;-64
2023/03/19 00:52:45;;;;;;;8.65;4.07;;;;;;;4.28;51.25;99498.78;4957842;27;20047;-63
2023/03/19 00:55:15;;;;;;;9.52;3.88;;;;;;;4.24;51.19;99478.09;4966160;27;20057;-62
2023/03/19 00:57:49;;;;;;;5.88;3.60;;;;;;;4.57;51.51;99510.75;4963642;27;20051;-62
2023/03/19 01:00:21;;;;;;;12.00;4.10;;;;;;;4.90;50.88;99498.53;4965562;27;20043;-63
2023/03/19 01:02:52;;;;;;;8.25;4.03;;;;;;;4.54;50.76;99484.88;4946007;27;20110;-63
2023/03/19 01:05:22;;;;;;;7.90;3.92;;;;;;;4.90;50.45;99493.34;4951397;27;20051;-62
2023/03/19 01:07:55;;;;;;;10.15;3.90;;;;;;;4.95;49.47;99492.44;4957881;27;20047;-63
2023/03/19 01:10:25;;;;;;;11.05;4.10;;;;;;;5.46;49.51;99489.47;4958366;27;20116;-63
2023/03/19 01:12:56;;;;;;;9.07;3.80;;;;;;;5.81;48.70;99477.94;4959426;27;20062;-64
2023/03/19 01:15:26;;;;;;;8.68;4.30;;;;;;;5.51;47.57;99487.72;4953337;27;20108;-63
2023/03/19 01:17:57;;;;;;;11.05;4.68;;;;;;;5.22;48.46;99484.47;4945515;28;20051;-63
2023/03/19 01:20:27;;;;;;;6.10;3.80;;;;;;;4.94;48.73;99489.84;4958840;27;20429;-63
2023/03/19 01:23:00;;;;;;;10.95;4.22;;;;;;;4.90;48.40;99467.44;4954012;27;20100;-63
2023/03/19 01:25:30;;;;;;;6.65;3.78;;;;;;;5.41;47.46;99483.47;4955404;27;20047;-62
2023/03/19 01:28:01;;;;;;;8.68;4.28;;;;;;;5.60;47.78;99450.50;4957363;27;20057;-64
2023/03/19 01:30:31;;;;;;;12.95;4.72;;;;;;;5.74;47.25;99473.69;4973508;27;20057;-63
2023/03/19 01:33:02;;;;;;;7.13;3.35;;;;;;;5.63;45.25;99460.84;4962902;27;20045;-63
2023/03/19 01:35:32;;;;;;;5.28;2.97;;;;;;;5.42;44.65;99451.53;4915998;27;20417;-65
2023/03/19 01:38:05;;;;;;;6.22;3.30;;;;;;;5.29;46.71;99455.09;4913844;28;20529;-64
2023/03/19 01:40:35;;;;;;;10.70;2.78;;;;;;;5.28;45.55;99448.19;4957773;27;20052;-65
2023/03/19 01:43:18;;;;;;;6.72;3.13;;;;;;;4.96;45.47;99436.34;4950563;28;20128;-62
2023/03/19 01:45:52;;;;;;;6.40;3.00;;;;;;;4.89;45.94;99445.00;4938956;28;20047;-63
2023/03/19 01:48:29;;;;;;;6.00;3.08;;;;;;;4.68;46.18;99431.34;4936861;28;20632;-62
2023/03/19 01:51:01;;;;;;;5.55;2.88;;;;;;;4.73;45.07;99434.75;4943722;28;20104;-64
2023/03/19 01:53:36;;;;;;;7.13;3.10;;;;;;;4.79;45.02;99423.50;4937237;28;20053;-63
2023/03/19 01:56:12;;;;;;;4.75;2.42;;;;;;;4.81;45.29;99420.91;4942993;28;20075;-62
2023/03/19 01:58:44;;;;;;;9.45;3.05;;;;;;;4.57;44.12;99407.25;4937533;27;20060;-61
2023/03/19 02:01:15;;;;;;;4.80;2.65;;;;;;;4.13;44.30;99354.03;4947226;28;20398;-63
2023/03/19 02:03:47;;;;;;;11.43;3.75;;;;;;;4.57;45.09;99417.63;4951202;27;20146;-63
2023/03/19 02:06:18;;;;;;;9.43;4.40;;;;;;;4.92;44.16;99408.78;4951951;27;20363;-63
2023/03/19 02:08:52;;;;;;;6.05;2.80;;;;;;;5.14;44.16;99399.97;4954081;27;20054;-63
2023/03/19 02:11:23;;;;;;;7.70;2.78;;;;;;;5.63;43.73;99391.72;4941525;27;20068;-63
2023/03/19 02:13:53;;;;;;;7.57;3.20;;;;;;;5.75;43.68;99374.34;4946348;27;20055;-62
2023/03/19 02:16:24;;;;;;;4.78;2.72;;;;;;;5.58;43.14;99380.53;4947316;28;20076;-62
2023/03/19 02:18:55;;;;;;;7.63;3.30;;;;;;;5.54;43.69;99373.69;4946474;27;20047;-62
2023/03/19 02:21:26;;;;;;;11.10;4.80;;;;;;;5.52;43.81;99377.19;4948928;27;20058;-64
2023/03/19 02:24:07;;;;;;;5.55;3.10;;;;;;;5.67;42.98;99379.59;4953086;27;20170;-63
2023/03/19 02:26:40;;;;;;;5.72;3.17;;;;;;;5.82;42.42;99378.56;4935550;28;20059;-63
2023/03/19 02:29:10;;;;;;;7.57;3.22;;;;;;;5.36;42.68;99376.44;4945436;28;20130;-63
2023/03/19 02:31:41;;;;;;;7.57;2.92;;;;;;;5.15;42.93;99334.34;4951137;27;20104;-63
2023/03/19 02:34:34;;;;;;;8.60;3.88;;;;;;;5.08;44.03;99337.84;4953244;27;21826;-64
2023/03/19 02:37:08;;;;;;;8.13;2.90;;;;;;;4.99;43.22;99353.47;4937961;27;20070;-62
2023/03/19 02:39:48;;;;;;;4.35;2.53;;;;;;;4.81;43.28;99325.16;4947381;28;20043;-62
2023/03/19 02:42:22;;;;;;;4.28;2.38;;;;;;;4.70;42.82;99351.97;4938218;28;20105;-62
2023/03/19 02:44:52;;;;;;;7.85;2.72;;;;;;;4.67;42.85;99352.00;4939948;27;20861;-63
2023/03/19 02:47:24;;;;;;;6.30;2.92;;;;;;;4.61;42.77;99352.03;4963216;27;20055;-62
2023/03/19 02:49:54;;;;;;;8.10;3.03;;;;;;;5.07;42.96;99346.50;4964713;27;20047;-61
2023/03/19 02:52:25;;;;;;;9.80;3.92;;;;;;;5.40;41.99;99357.41;4965067;27;20058;-61
2023/03/19 02:54:55;;;;;;;7.53;2.70;;;;;;;5.61;42.31;99343.38;4964559;27;20047;-62
2023/03/19 02:57:28;;;;;;;5.85;2.80;;;;;;;5.19;42.49;99273.00;4979167;27;20416;-64
2023/03/19 02:59:58;;;;;;;7.28;3.58;;;;;;;5.74;41.46;99336.31;4945297;27;20460;-64
2023/03/19 03:02:29;;;;;;;7.60;4.00;;;;;;;5.77;41.65;99338.88;4945156;27;20048;-63
2023/03/19 03:04:59;;;;;;;7.63;3.70;;;;;;;5.91;41.70;99334.38;4947453;27;20066;-63
2023/03/19 03:07:30;;;;;;;12.75;3.88;;;;;;;5.86;41.70;99337.91;4945479;27;20077;-63
2023/03/19 03:10:00;;;;;;;6.65;3.38;;;;;;;5.80;42.85;99307.75;4945814;27;20400;-64
2023/03/19 03:12:33;;;;;;;5.95;2.92;;;;;;;6.05;41.97;99329.91;4954265;27;20094;-63
2023/03/19 03:15:03;;;;;;;7.22;2.92;;;;;;;5.95;41.36;99307.56;4947183;27;20062;-63
2023/03/19 03:17:34;;;;;;;5.75;2.45;;;;;;;5.91;40.99;99305.00;4945562;28;20051;-62
2023/03/19 03:20:06;;;;;;;5.68;2.50;;;;;;;5.91;42.00;99300.66;4946334;27;20044;-62
2023/03/19 03:22:36;;;;;;;5.05;2.50;;;;;;;5.80;40.07;99307.75;4947288;27;20059;-63
2023/03/19 03:25:08;;;;;;;13.52;4.18;;;;;;;5.79;40.92;99295.63;4947052;27;20056;-62
2023/03/19 03:27:41;;;;;;;9.55;3.97;;;;;;;5.80;41.85;99287.00;4944866;28;20073;-62
2023/03/19 03:30:12;;;;;;;10.55;4.28;;;;;;;5.78;41.42;99268.00;4941442;28;20056;-62
2023/03/19 03:32:43;;;;;;;11.25;3.53;;;;;;;6.08;42.35;99276.28;4946142;28;20489;-62
2023/03/19 03:35:20;;;;;;;8.00;3.00;;;;;;;6.21;41.64;99262.25;4947353;28;20720;-62
2023/03/19 03:37:51;;;;;;;11.57;3.83;;;;;;;6.22;42.14;99253.63;4943692;28;20151;-62
2023/03/19 03:40:22;;;;;;;15.70;6.00;;;;;;;6.09;41.99;99257.25;4948797;28;20053;-62
2023/03/19 03:42:54;;;;;;;7.47;3.05;;;;;;;6.02;41.87;99246.97;4947090;28;20044;-61
2023/03/19 03:45:24;;;;;;;7.68;3.25;;;;;;;6.04;42.60;99245.22;4946917;28;20113;-61
2023/03/19 03:47:55;;;;;;;5.55;2.65;;;;;;;6.14;42.49;99247.66;4944784;28;20047;-61
2023/03/19 03:50:26;;;;;;;13.10;3.83;;;;;;;6.05;41.49;99246.94;4946042;28;20059;-62
2023/03/19 03:52:56;;;;;;;9.95;2.90;;;;;;;5.92;40.79;99255.72;4947351;28;20630;-62
2023/03/19 03:55:27;;;;;;;9.45;2.88;;;;;;;5.69;42.10;99252.56;4946494;28;20051;-62
2023/03/19 03:57:59;;;;;;;9.48;2.75;;;;;;;5.46;43.24;99248.53;4945633;28;20642;-63
2023/03/19 04:00:30;;;;;;;10.27;3.58;;;;;;;5.33;42.57;99228.84;4946560;28;20063;-62
2023/03/19 04:03:04;;;;;;;10.13;3.95;;;;;;;5.29;42.86;99232.31;4943838;28;20158;-61
2023/03/19 04:05:41;;;;;;;10.45;2.95;;;;;;;4.89;42.80;99222.38;4945180;28;20081;-62
2023/03/19 04:08:21;;;;;;;13.43;4.30;;;;;;;4.70;42.62;99207.06;4935297;28;20039;-62
2023/03/19 04:10:55;;;;;;;11.75;3.63;;;;;;;4.45;42.67;99179.69;4934245;28;20055;-61
2023/03/19 04:13:28;;;;;;;14.77;4.68;;;;;;;4.76;43.21;99222.50;4945691;28;20048;-61
2023/03/19 04:15:58;;;;;;;18.75;4.78;;;;;;;4.97;42.82;99233.56;4944910;28;20047;-62
2023/03/19 04:18:29;;;;;;;12.55;3.35;;;;;;;5.04;43.73;99227.44;4945368;28;20059;-61
2023/03/19 04:21:02;;;;;;;6.63;2.90;;;;;;;5.03;43.58;99230.88;4942742;28;20525;-62
2023/03/19 04:23:33;;;;;;;5.90;3.05;;;;;;;4.90;42.49;99213.78;4945375;28;20055;-62
2023/03/19 04:26:05;;;;;;;7.85;3.42;;;;;;;4.64;43.09;99181.25;4944994;28;20047;-62
2023/03/19 04:28:38;;;;;;;9.20;3.50;;;;;;;4.80;42.88;99212.16;4945016;28;21101;-61
2023/03/19 04:31:10;;;;;;;6.03;2.60;;;;;;;4.56;43.60;99133.88;4945740;28;20055;-61
2023/03/19 04:33:40;;;;;;;4.53;2.42;;;;;;;5.12;43.55;99204.91;4944533;28;20071;-61
2023/03/19 04:36:11;;;;;;;7.28;3.35;;;;;;;5.13;43.63;99191.06;4943412;28;20054;-61
2023/03/19 04:38:42;;;;;;;4.18;2.42;;;;;;;4.89;42.76;99155.09;4951491;28;20049;-60
2023/03/19 04:41:12;;;;;;;5.15;2.80;;;;;;;5.08;43.46;99186.81;4948452;28;20057;-60
2023/03/19 04:43:45;;;;;;;4.90;2.55;;;;;;;4.96;43.41;99167.09;4945111;28;20065;-60
2023/03/19 04:46:15;;;;;;;4.88;2.22;;;;;;;5.08;44.00;99182.50;4946371;28;20059;-61
2023/03/19 04:48:46;;;;;;;6.40;2.65;;;;;;;5.12;44.05;99184.19;4945868;28;20048;-60
2023/03/19 04:51:16;;;;;;;5.95;2.33;;;;;;;5.23;44.28;99185.78;4945725;28;20075;-60
2023/03/19 04:53:47;;;;;;;6.63;2.78;;;;;;;5.26;44.03;99181.41;4946332;27;20055;-60
2023/03/19 04:56:19;;;;;;;5.65;2.25;;;;;;;5.27;44.12;99177.13;4948455;27;20062;-60
2023/03/19 04:58:51;;;;;;;5.40;2.63;;;;;;;5.17;44.06;99169.44;4946968;27;20047;-60
2023/03/19 05:01:22;;;;;;;8.55;3.25;;;;;;;5.14;44.73;99156.53;4944531;27;20115;-60
2023/03/19 05:03:52;;;;;;;8.52;2.50;;;;;;;5.06;44.18;99158.34;4950071;27;20063;-60
2023/03/19 05:06:23;;;;;;;5.05;2.55;;;;;;;5.07;43.31;99162.66;4947165;27;20120;-60
2023/03/19 05:08:55;;;;;;;6.47;2.78;;;;;;;5.07;43.67;99154.91;4947498;27;20074;-59
2023/03/19 05:11:26;;;;;;;4.45;2.58;;;;;;;5.02;44.22;99161.88;4947154;27;20116;-60
2023/03/19 05:13:58;;;;;;;6.72;2.30;;;;;;;4.89;45.05;99158.56;4945250;27;20062;-59
2023/03/19 05:16:29;;;;;;;7.82;2.53;;;;;;;4.82;44.39;99158.63;4947547;27;20591;-61
2023/03/19 05:19:00;;;;;;;7.03;2.72;;;;;;;4.59;44.09;99144.19;4946167;27;20047;-60
2023/03/19 05:21:30;;;;;;;6.10;2.22;;;;;;;4.61;44.19;99160.56;4945885;27;20132;-60
2023/03/19 05:24:00;;;;;;;6.32;2.40;;;;;;;4.56;44.75;99162.34;4947482;27;22536;-60
2023/03/19 05:26:31;;;;;;;6.05;2.80;;;;;;;4.39;43.94;99161.63;4956650;27;20056;-60
2023/03/19 05:29:03;;;;;;;5.00;2.03;;;;;;;4.26;44.48;99159.16;4951692;27;20060;-60
2023/03/19 05:31:34;;;;;;;5.68;2.40;;;;;;;4.20;43.72;99166.97;4945486;27;20060;-60
2023/03/19 05:34:05;;;;;;;4.97;1.95;;;;;;;4.05;43.73;99169.69;4949225;27;20456;-59
2023/03/19 05:36:35;;;;;;;4.63;2.60;;;;;;;3.57;43.20;99125.22;4948422;27;20055;-60
2023/03/19 05:39:06;;;;;;;4.25;2.58;;;;;;;3.80;43.68;99175.03;4946348;27;20108;-59
2023/03/19 05:41:37;;;;;;;4.65;2.08;;;;;;;3.70;42.85;99152.69;4948286;27;20048;-62
2023/03/19 05:44:09;;;;;;;3.78;2.13;;;;;;;3.64;45.16;99161.34;4947618;27;20055;-62
2023/03/19 05:46:40;;;;;;;3.58;2.15;;;;;;;3.57;43.40;99167.41;4947212;27;20067;-62
2023/03/19 05:49:11;;;;;;;11.27;3.97;;;;;;;3.37;44.93;99128.78;4946798;27;20125;-63
2023/03/19 05:51:41;;;;;;;5.32;2.55;;;;;;;3.52;45.33;99156.25;4952861;27;20040;-60
2023/03/19 05:54:12;;;;;;;5.75;2.53;;;;;;;3.51;45.06;99156.25;4950756;27;20095;-60
2023/03/19 05:56:43;;;;;;;3.67;2.03;;;;;;;3.53;44.51;99165.72;4946967;27;20043;-61
2023/03/19 05:59:15;;;;;;;6.60;2.50;;;;;;;3.51;43.47;99157.09;4947027;27;20108;-60
2023/03/19 06:01:46;;;;;;;5.85;2.30;;;;;;;3.52;43.49;99142.47;4947429;27;20124;-60
2023/03/19 06:04:18;;;;;;;7.10;2.97;;;;;;;3.56;44.68;99149.34;4946626;27;20055;-61
2023/03/19 06:06:49;;;;;;;5.82;2.47;;;;;;;3.62;44.67;99142.41;4947028;27;20044;-61
2023/03/19 06:09:19;;;;;;;3.55;2.10;;;;;;;3.73;44.43;99139.75;4946958;27;20797;-63
2023/03/19 06:11:50;;;;;;;9.65;5.10;;;;;;;3.56;45.39;99088.19;4947394;27;20052;-61
2023/03/19 06:14:22;;;;;;;8.52;5.65;;;;;;;3.92;45.25;99129.28;4946721;28;25213;-61
2023/03/19 06:16:52;;;;;;;3.92;2.05;;;;;;;4.00;43.93;99135.25;4937001;27;20067;-60
2023/03/19 06:19:23;;;;;;;4.20;2.40;;;;;;;4.00;44.53;99127.50;4948737;27;20056;-61
2023/03/19 06:21:54;;;;;;;6.07;3.00;;;;;;;4.04;44.78;99136.94;4947367;27;20075;-61
2023/03/19 06:24:24;;;;;;;5.45;2.35;;;;;;;4.03;45.12;99135.22;4947075;27;20142;-61
2023/03/19 06:26:55;;;;;;;4.93;2.30;;;;;;;4.06;45.09;99125.72;4927491;27;20055;-61
2023/03/19 06:29:27;;;;;;;4.60;2.97;;;;;;;4.10;45.28;99131.72;4947014;27;20043;-64
2023/03/19 06:31:58;;;;;;;4.95;2.00;;;;;;;4.05;45.45;99118.00;4946739;28;20048;-62
2023/03/19 06:34:29;;;;;;;7.80;2.13;;;;;;;4.02;44.49;99128.31;4946561;27;20058;-61
2023/03/19 06:36:59;;;;;;;4.72;2.45;;;;;;;3.96;45.07;99124.06;4947752;27;20435;-61
2023/03/19 06:39:30;;;;;;;5.53;2.53;;;;;;;3.97;46.32;99124.91;4946833;27;20055;-64
2023/03/19 06:42:01;;;;;;;8.00;2.30;;;;;;;3.94;45.80;99130.97;4946682;27;23129;-63
2023/03/19 06:44:33;;;;;;;5.85;2.20;;;;;;;3.96;46.29;99130.97;4940358;27;20746;-63
2023/03/19 06:47:04;;;;;;;5.25;1.90;;;;;;;3.94;45.84;99124.97;4947361;27;20054;-63
2023/03/19 06:49:35;;;;;;;6.97;2.20;;;;;;;3.88;46.10;99125.88;4946206;27;20051;-62
2023/03/19 06:52:05;;;;;;;3.88;2.20;;;;;;;3.80;46.08;99131.09;4947241;27;20079;-63
2023/03/19 06:54:36;;;;;;;6.20;2.58;;;;;;;3.93;45.61;99128.41;4946623;27;20055;-64
2023/03/19 06:57:07;;;;;;;6.32;2.85;;;;;;;3.96;44.85;99133.56;4946445;27;20355;-63
2023/03/19 06:59:39;;;;;;;5.63;2.40;;;;;;;4.10;46.03;99131.72;4945190;27;20056;-62
2023/03/19 07:02:12;;;;;;;4.45;1.60;;;;;;;4.19;45.31;99121.28;4945336;27;20055;-63
2023/03/19 07:04:42;;;;;;;7.70;1.90;;;;;;;4.22;45.55;99131.63;4938581;27;20077;-64
2023/03/19 07:07:13;;;;;;;6.50;2.33;;;;;;;4.22;45.21;99126.47;4946025;27;20051;-63
2023/03/19 07:09:43;;;;;;;8.13;2.80;;;;;;;4.33;45.10;99132.38;4944931;27;20055;-63
2023/03/19 07:12:14;;;;;;;4.32;2.50;;;;;;;4.31;44.83;99126.34;4946896;27;20060;-62
2023/03/19 07:14:47;;;;;;;4.03;2.28;;;;;;;4.29;45.24;99122.94;4946888;27;20521;-62
2023/03/19 07:17:21;;;;;;;4.43;2.00;;;;;;;4.37;45.19;99109.06;4941196;28;20591;-63
2023/03/19 07:19:52;;;;;;;3.40;1.88;;;;;;;4.17;43.70;99117.88;4949745;27;20052;-62
2023/03/19 07:22:22;;;;;;;4.18;2.10;;;;;;;4.07;45.51;99122.28;4948698;27;21124;-63
2023/03/19 07:24:56;;;;;;;8.63;3.47;;;;;;;4.11;45.45;99131.69;4945607;27;20054;-62
2023/03/19 07:27:26;;;;;;;7.35;2.78;;;;;;;4.08;46.18;99123.97;4945586;27;20109;-62
2023/03/19 07:29:58;;;;;;;7.45;3.42;;;;;;;3.98;46.07;99112.00;4945618;28;20149;-60
2023/03/19 07:32:29;;;;;;;10.32;2.90;;;;;;;3.98;46.39;99121.50;4942708;27;20715;-62
2023/03/19 07:34:59;;;;;;;6.18;2.40;;;;;;;3.82;46.21;99126.78;4944133;27;20148;-63
2023/03/19 07:37:30;;;;;;;10.52;5.55;;;;;;;3.73;46.88;99107.91;4941736;28;20056;-62
2023/03/19 07:40:02;;;;;;;15.20;5.72;;;;;;;3.55;46.88;99090.81;4936370;28;20095;-62
2023/03/19 07:42:32;;;;;;;7.82;3.90;;;;;;;3.58;48.03;99108.88;4942414;28;20812;-62
2023/03/19 07:45:05;;;;;;;12.57;6.65;;;;;;;3.51;48.28;99105.44;4944642;28;20100;-61
2023/03/19 07:47:35;;;;;;;15.30;7.03;;;;;;;3.42;48.77;99116.72;4945238;28;20055;-62
2023/03/19 07:50:07;;;;;;;9.55;4.30;;;;;;;3.34;49.33;99117.59;4945446;28;20043;-62
2023/03/19 07:52:37;;;;;;;5.45;2.40;;;;;;;3.28;49.63;99123.66;4945592;28;20582;-62
2023/03/19 07:55:08;;;;;;;8.30;2.45;;;;;;;3.21;49.70;99127.13;4946209;28;20071;-62
2023/03/19 07:57:40;;;;;;;10.43;2.65;;;;;;;3.18;49.10;99119.41;4945479;28;20046;-62
2023/03/19 08:00:26;;;;;;;7.63;2.35;;;;;;;3.11;50.26;99122.88;4945396;28;20054;-62
2023/03/19 08:03:00;;;;;;;6.85;2.60;;;;;;;2.98;50.83;99120.34;4899676;28;20413;-61
2023/03/19 08:05:43;;;;;;;9.38;2.75;;;;;;;2.78;51.50;99122.16;4909276;28;20069;-64
2023/03/19 08:08:14;;;;;;;9.52;2.70;;;;;;;2.73;52.15;99126.47;4899767;28;20048;-61
2023/03/19 08:10:49;;;;;;;6.80;2.30;;;;;;;2.48;52.29;99107.63;4910479;28;21259;-62
2023/03/19 08:13:21;;;;;;;9.80;2.70;;;;;;;2.51;53.06;99121.34;4910022;28;20055;-61
2023/03/19 08:15:56;;;;;;;4.68;2.28;;;;;;;2.52;53.43;99146.31;4903951;28;20057;-63
2023/03/19 08:18:31;;;;;;;8.18;2.72;;;;;;;2.43;53.12;99125.69;4909823;28;20732;-62
2023/03/19 08:21:06;;;;;;;8.88;2.60;;;;;;;2.31;53.88;99123.13;4899877;28;20070;-62
2023/03/19 08:23:45;;;;;;;10.23;3.03;;;;;;;2.25;54.54;99128.31;4909430;28;20086;-62
2023/03/19 08:26:27;;;;;;;9.02;2.90;;;;;;;2.14;55.23;99134.28;4899185;28;20060;-62
2023/03/19 08:29:13;;;;;;;;;;;;;;;2.02;55.94;99129.16;4904600;28;20063;-61
2023/03/19 08:31:50;;;;;;;7.50;2.50;;;;;;;1.93;55.80;99135.16;4905210;28;19924;-62
2023/03/19 08:34:20;;;;;;;11.27;3.22;;;;;;;1.87;56.24;99134.28;4913677;28;20068;-62
2023/03/19 08:37:09;;;;;;;9.50;2.80;;;;;;;1.83;56.94;99142.91;4912202;28;20072;-62
2023/03/19 08:39:43;;;;;;;16.63;3.58;;;;;;;1.75;57.31;99150.63;4899081;28;20051;-61
2023/03/19 08:42:15;;;;;;;12.18;3.20;;;;;;;1.68;57.67;99157.47;4949539;27;20043;-60
2023/03/19 08:44:48;;;;;;;17.10;3.05;;;;;;;1.65;57.72;99165.19;4948134;27;20051;-60
2023/03/19 08:47:23;;;;;;;10.30;2.88;;;;;;;1.60;58.08;99160.88;4948464;27;20048;-60
2023/03/19 08:49:54;;;;;;;12.30;3.20;;;;;;;1.56;58.60;99169.47;4936773;27;21430;-60
2023/03/19 08:52:25;;;;;;;12.77;3.60;;;;;;;1.55;58.58;99178.91;4949346;27;20109;-60
2023/03/19 08:54:55;;;;;;;8.70;2.88;;;;;;;1.54;58.30;99166.88;4949511;27;20048;-61
2023/03/19 08:57:28;;;;;;;11.88;3.22;;;;;;;1.53;58.72;99179.75;4947774;27;20055;-60
2023/03/19 09:00:04;;;;;;;9.50;3.10;;;;;;;1.50;58.49;99175.47;4942839;27;20059;-60
2023/03/19 09:02:39;;;;;;;9.30;3.00;;;;;;;1.49;58.93;99173.72;4948337;27;20067;-60
2023/03/19 09:05:13;;;;;;;9.30;3.20;;;;;;;1.47;58.50;99170.28;4947485;27;20062;-60
2023/03/19 09:07:48;;;;;;;10.57;3.70;;;;;;;1.49;57.84;99159.13;4937429;27;20047;-60
2023/03/19 09:10:19;;;;;;;12.48;3.33;;;;;;;1.54;57.29;99164.28;4947612;27;20062;-60
2023/03/19 09:12:49;;;;;;;10.48;3.20;;;;;;;1.59;56.88;99165.16;4948063;27;20070;-60
2023/03/19 09:15:24;;;;;;;16.75;3.97;;;;;;;1.57;56.86;99166.88;4947984;27;20140;-61
2023/03/19 09:17:59;;;;;;;6.82;2.88;;;;;;;1.52;57.52;99163.44;4936778;27;20847;-61
2023/03/19 09:20:30;;;;;;;7.68;3.17;;;;;;;1.48;57.61;99156.56;4948109;27;20052;-61
2023/03/19 09:23:03;;;;;;;9.05;2.58;;;;;;;1.44;57.32;99159.97;4938692;27;20054;-60
2023/03/19 09:25:37;;;;;;;9.15;3.53;;;;;;;1.40;56.86;99158.25;4946866;27;20058;-61
2023/03/19 09:28:07;;;;;;;7.63;4.18;;;;;;;1.36;57.24;99151.38;4948086;27;20062;-61
2023/03/19 09:30:40;;;;;;;11.52;3.75;;;;;;;1.31;57.60;99163.38;4947227;27;20047;-61
2023/03/19 09:33:13;;;;;;;11.35;3.55;;;;;;;1.24;57.97;99153.06;4946137;27;20060;-60
2023/03/19 09:35:44;;;;;;;10.55;4.05;;;;;;;1.21;57.82;99168.50;4947567;27;20493;-60
2023/03/19 09:38:15;;;;;;;10.20;3.20;;;;;;;1.22;58.13;99169.34;4947096;27;20051;-61
2023/03/19 09:40:52;;;;;;;12.38;3.72;;;;;;;1.21;58.21;99163.34;4948757;27;20039;-60
2023/03/19 09:43:38;;;;;;;20.85;5.95;;;;;;;1.14;58.59;99161.59;4938246;27;20051;-60
2023/03/19 09:46:20;;;;;;;23.05;7.95;;;;;;;1.22;58.40;99180.53;4934532;27;20064;-61
2023/03/19 09:48:58;;;;;;;16.15;5.75;;;;;;;1.29;58.37;99171.94;4945690;27;20208;-62
2023/03/19 09:51:36;;;;;;;29.85;9.90;;;;;;;1.36;58.24;99174.56;4947165;27;20068;-61
2023/03/19 09:54:14;;;;;;;17.63;7.72;;;;;;;1.38;58.06;99172.84;4936316;27;20043;-61
2023/03/19 09:56:49;;;;;;;22.98;8.38;;;;;;;1.37;58.73;99173.69;4935783;27;20066;-60
2023/03/19 09:59:20;;;;;;;19.42;6.53;;;;;;;1.33;59.00;99166.81;4947007;27;20051;-61
2023/03/19 10:01:58;;;;;;;12.80;4.72;;;;;;;1.29;59.20;99163.38;4946190;27;20053;-62
2023/03/19 10:04:43;;;;;;;12.52;4.85;;;;;;;1.27;59.39;99158.22;4946603;27;20074;-61
2023/03/19 10:07:25;;;;;;;11.13;4.50;;;;;;;1.33;59.58;99166.81;4937585;27;20067;-61
2023/03/19 10:10:28;;;;;;;16.15;5.35;;;;;;;1.37;59.23;99158.25;4935485;27;20471;-61
2023/03/19 10:13:09;;;;;;;18.27;5.75;;;;;;;1.25;59.20;99144.50;4946176;27;20100;-61
2023/03/19 10:15:42;;;;;;;13.23;4.88;;;;;;;1.37;59.75;99168.53;4935312;27;20542;-61
2023/03/19 10:18:17;;;;;;;19.65;4.40;;;;;;;1.39;59.55;99166.84;4937534;27;20047;-61
2023/03/19 10:20:56;;;;;;;13.65;4.57;;;;;;;1.37;59.43;99158.25;4946104;27;20386;-61
2023/03/19 10:23:42;;;;;;;;;;;;;;;1.38;59.54;99170.28;4937055;27;20081;-61
2023/03/19 10:26:15;;;;;;;13.45;3.83;;;;;;;1.32;60.12;99170.22;4940558;27;19933;-62
2023/03/19 10:28:58;;;;;;;14.27;3.95;;;;;;;1.32;59.97;99175.38;4946195;27;20047;-62
2023/03/19 10:31:30;;;;;;;13.98;5.05;;;;;;;0.72;60.19;99075.69;4935870;27;20051;-61
2023/03/19 10:34:15;;;;;;;9.93;4.28;;;;;;;1.31;60.18;99165.97;4947524;27;20426;-61
2023/03/19 10:36:49;;;;;;;12.82;4.32;;;;;;;1.29;60.50;99151.34;4936725;27;20051;-61
2023/03/19 10:39:20;;;;;;;13.40;4.22;;;;;;;1.24;60.64;99147.91;4945841;27;20051;-62
2023/03/19 10:42:03;;;;;;;11.90;3.97;;;;;;;1.22;60.87;99144.50;4942675;27;20067;-62
2023/03/19 10:44:39;;;;;;;12.20;4.30;;;;;;;1.15;61.40;99127.31;4937057;27;20139;-62
2023/03/19 10:47:14;;;;;;;15.88;4.82;;;;;;;1.24;61.83;99153.06;4946291;28;20156;-62
2023/03/19 10:49:46;;;;;;;13.98;4.25;;;;;;;1.29;61.32;99166.78;4934980;27;20055;-61
2023/03/19 10:52:25;;;;;;;17.10;4.38;;;;;;;1.27;61.23;99153.09;4937397;27;20051;-61
2023/03/19 10:55:03;;;;;;;15.85;4.63;;;;;;;1.42;61.07;99179.69;4935560;27;20067;-62
2023/03/19 10:57:35;;;;;;;13.32;4.00;;;;;;;1.41;61.74;99175.41;4935990;27;20048;-62
2023/03/19 11:00:17;;;;;;;18.42;4.97;;;;;;;1.39;61.64;99171.97;4945716;27;20517;-62
2023/03/19 11:02:51;;;;;;;14.45;5.03;;;;;;;1.25;62.02;99184.81;4935307;27;20058;-61
2023/03/19 11:05:30;;;;;;;10.55;4.20;;;;;;;0.89;62.07;99113.47;4940682;27;20053;-62
2023/03/19 11:08:05;;;;;;;16.65;4.18;;;;;;;0.93;62.67;99125.50;4945587;27;20428;-62
2023/03/19 11:10:37;;;;;;;20.90;5.95;;;;;;;1.29;62.85;99195.09;4944974;27;20059;-62
2023/03/19 11:13:23;;;;;;;12.93;4.45;;;;;;;1.28;62.92;99188.25;4948181;27;20051;-61
2023/03/19 11:15:59;;;;;;;16.48;4.78;;;;;;;1.23;63.36;99184.78;4933400;27;20462;-62
2023/03/19 11:18:32;;;;;;;13.70;4.05;;;;;;;1.25;63.56;99184.81;4945372;27;20081;-62
2023/03/19 11:21:08;;;;;;;14.27;4.80;;;;;;;1.14;63.36;99166.75;4936501;27;20058;-61
2023/03/19 11:23:43;;;;;;;11.80;4.25;;;;;;;1.26;63.33;99177.09;4945544;28;20657;-61
2023/03/19 11:26:20;;;;;;;13.07;4.30;;;;;;;1.35;63.27;99186.56;4935242;27;20054;-61
2023/03/19 11:28:53;;;;;;;19.08;5.05;;;;;;;1.19;63.22;99143.59;4945323;27;20064;-62
2023/03/19 11:31:32;;;;;;;18.83;5.55;;;;;;;1.42;63.00;99183.16;4947356;27;20716;-61
2023/03/19 11:34:16;;;;;;;9.15;4.07;;;;;;;1.14;63.36;99128.16;4935215;28;20055;-62
2023/03/19 11:36:56;;;;;;;20.55;4.53;;;;;;;1.44;63.60;99186.56;4934766;28;20056;-62
2023/03/19 11:39:41;;;;;;;13.07;4.50;;;;;;;1.40;63.82;99178.84;4936400;27;20047;-62
2023/03/19 11:42:59;;;;;;;22.15;6.82;;;;;;;1.42;64.00;99179.69;4939098;28;20064;-63
2023/03/19 11:45:36;;;;;;;13.15;4.32;;;;;;;1.21;63.79;99145.31;4934336;28;20463;-61
2023/03/19 11:48:32;;;;;;;18.05;4.22;;;;;;;1.47;63.71;99180.56;4935728;28;20051;-62
2023/03/19 11:51:10;;;;;;;20.48;5.78;;;;;;;1.53;63.24;99179.75;4923964;28;20059;-62
2023/03/19 11:53:55;;;;;;;18.30;4.03;;;;;;;1.49;63.52;99173.72;4943497;28;20052;-62
2023/03/19 11:56:38;;;;;;;16.10;4.75;;;;;;;1.45;63.46;99177.16;4935581;28;20151;-62
2023/03/19 11:59:49;;;;;;;15.93;4.30;;;;;;;1.55;63.53;99183.16;4934002;28;20112;-63
2023/03/19 12:02:54;;;;;;;15.32;4.30;;;;;;;1.56;63.31;99183.19;4935095;27;20047;-62
2023/03/19 12:05:32;;;;;;;13.63;4.57;;;;;;;1.62;63.42;99170.34;4939634;27;20058;-62
2023/03/19 12:08:26;;;;;;;13.73;4.45;;;;;;;1.61;63.54;99178.91;4938937;27;20137;-62
2023/03/19 12:11:17;;;;;;;14.70;4.22;;;;;;;1.49;63.39;99155.69;4937233;27;20485;-63